createdAt,value
2019-03-28T00:00:46.323Z,5.2
2019-03-28T00:01:52.984Z,5.1
2019-03-28T00:02:59.910Z,5.1
2019-03-28T00:04:07.108Z,5.1
2019-03-28T00:05:14.312Z,5.1
2019-03-28T00:06:21.509Z,5.1
2019-03-28T00:07:29.409Z,5.1
2019-03-28T00:08:36.605Z,5.1
2019-03-28T00:09:43.802Z,5.1
2019-03-28T00:10:51.609Z,5.1
2019-03-28T00:11:58.811Z,5.1
2019-03-28T00:13:06.033Z,5.1
2019-03-28T00:14:13.220Z,5.1
2019-03-28T00:15:20.151Z,5.1
2019-03-28T00:16:27.050Z,5
2019-03-28T00:17:33.979Z,5
2019-03-28T00:18:41.179Z,5
2019-03-28T00:19:48.377Z,5
2019-03-28T00:20:55.578Z,4.9
2019-03-28T00:22:06.119Z,4.9
2019-03-28T00:23:13.368Z,4.9
2019-03-28T00:24:20.566Z,4.9
2019-03-28T00:25:27.494Z,4.9
2019-03-28T00:26:34.422Z,4.9
2019-03-28T00:27:41.627Z,4.9
2019-03-28T00:28:48.557Z,4.9
2019-03-28T00:29:55.757Z,4.9
2019-03-28T00:31:02.680Z,4.9
2019-03-28T00:32:09.618Z,4.9
2019-03-28T00:33:16.818Z,4.8
2019-03-28T00:34:24.619Z,4.8
2019-03-28T00:35:31.818Z,4.9
2019-03-28T00:36:39.025Z,4.9
2019-03-28T00:37:45.949Z,4.8
2019-03-28T00:38:53.149Z,4.8
2019-03-28T00:40:00.395Z,4.8
2019-03-28T00:41:07.578Z,4.8
2019-03-28T00:42:14.781Z,4.8
2019-03-28T00:43:21.976Z,4.8
2019-03-28T00:44:29.178Z,4.7
2019-03-28T00:45:36.375Z,4.7
2019-03-28T00:46:43.306Z,4.7
2019-03-28T00:47:50.509Z,4.7
2019-03-28T00:48:57.438Z,4.7
2019-03-28T00:50:04.359Z,4.6
2019-03-28T00:51:11.554Z,4.6
2019-03-28T00:52:18.206Z,4.6
2019-03-28T00:53:25.136Z,4.6
2019-03-28T00:54:32.365Z,4.6
2019-03-28T00:55:39.559Z,4.6
2019-03-28T00:56:48.145Z,4.6
2019-03-28T00:57:55.343Z,4.5
2019-03-28T00:59:02.548Z,4.5
2019-03-28T01:00:09.757Z,4.5
2019-03-28T01:01:16.956Z,4.5
2019-03-28T01:02:24.154Z,4.5
2019-03-28T01:03:31.083Z,4.5
2019-03-28T01:04:38.007Z,4.4
2019-03-28T01:05:45.214Z,4.4
2019-03-28T01:06:52.139Z,4.4
2019-03-28T01:07:58.783Z,4.4
2019-03-28T01:09:06.015Z,4.4
2019-03-28T01:10:13.213Z,4.4
2019-03-28T01:11:20.414Z,4.3
2019-03-28T01:12:27.844Z,4.3
2019-03-28T01:13:35.040Z,4.4
2019-03-28T01:14:42.240Z,4.3
2019-03-28T01:15:49.760Z,4.3
2019-03-28T01:16:56.963Z,4.3
2019-03-28T01:18:04.164Z,4.3
2019-03-28T01:19:11.363Z,4.3
2019-03-28T01:20:18.560Z,4.3
2019-03-28T01:21:25.766Z,4.4
2019-03-28T01:22:32.962Z,4.3
2019-03-28T01:23:39.894Z,4.3
2019-03-28T01:24:47.089Z,4.3
2019-03-28T01:25:54.284Z,4.3
2019-03-28T01:27:01.482Z,4.3
2019-03-28T01:28:08.407Z,4.3
2019-03-28T01:29:15.336Z,4.4
2019-03-28T01:30:22.756Z,4.3
2019-03-28T01:31:29.959Z,4.3
2019-03-28T01:32:37.154Z,4.3
2019-03-28T01:33:44.360Z,4.4
2019-03-28T01:34:51.286Z,4.4
2019-03-28T01:35:58.217Z,4.4
2019-03-28T01:37:05.420Z,4.4
2019-03-28T01:38:12.631Z,4.4
2019-03-28T01:39:19.846Z,4.4
2019-03-28T01:40:26.869Z,4.4
2019-03-28T01:41:34.061Z,4.4
2019-03-28T01:42:40.991Z,4.4
2019-03-28T01:43:48.191Z,4.4
2019-03-28T01:44:55.393Z,4.4
2019-03-28T01:46:02.595Z,4.4
2019-03-28T01:47:09.795Z,4.4
2019-03-28T01:48:16.991Z,4.5
2019-03-28T01:49:24.869Z,4.5
2019-03-28T01:50:31.812Z,4.5
2019-03-28T01:51:39.010Z,4.5
2019-03-28T01:52:46.214Z,4.5
2019-03-28T01:53:54.065Z,4.5
2019-03-28T01:55:01.261Z,4.5
2019-03-28T01:56:08.459Z,4.5
2019-03-28T01:57:15.663Z,4.5
2019-03-28T01:58:22.868Z,4.5
2019-03-28T01:59:30.071Z,4.5
2019-03-28T02:00:36.992Z,4.5
2019-03-28T02:01:44.575Z,4.5
2019-03-28T02:02:51.510Z,4.5
2019-03-28T02:03:58.704Z,4.5
2019-03-28T02:05:05.904Z,4.5
2019-03-28T02:06:13.115Z,4.5
2019-03-28T02:07:20.311Z,4.5
2019-03-28T02:08:27.508Z,4.5
2019-03-28T02:09:34.705Z,4.5
2019-03-28T02:10:41.635Z,4.5
2019-03-28T02:11:48.834Z,4.5
2019-03-28T02:12:56.725Z,4.4
2019-03-28T02:14:03.647Z,4.4
2019-03-28T02:15:10.843Z,4.4
2019-03-28T02:16:18.042Z,4.4
2019-03-28T02:17:25.247Z,4.4
2019-03-28T02:18:32.167Z,4.3
2019-03-28T02:19:39.366Z,4.3
2019-03-28T02:20:46.293Z,4.3
2019-03-28T02:21:53.754Z,4.2
2019-03-28T02:23:00.952Z,4.2
2019-03-28T02:24:08.150Z,4.2
2019-03-28T02:25:15.351Z,4.1
2019-03-28T02:26:23.533Z,4.1
2019-03-28T02:27:30.732Z,4.1
2019-03-28T02:28:37.930Z,4.1
2019-03-28T02:29:45.125Z,4.1
2019-03-28T02:30:52.322Z,4
2019-03-28T02:31:59.647Z,4.1
2019-03-28T02:33:06.579Z,4.1
2019-03-28T02:34:13.783Z,4.1
2019-03-28T02:35:20.982Z,4
2019-03-28T02:36:28.181Z,4
2019-03-28T02:37:35.477Z,4.1
2019-03-28T02:38:42.692Z,4
2019-03-28T02:39:51.241Z,4
2019-03-28T02:40:58.436Z,4
2019-03-28T02:42:05.636Z,4
2019-03-28T02:43:12.858Z,4
2019-03-28T02:44:20.058Z,4.1
2019-03-28T02:45:27.265Z,4.1
2019-03-28T02:46:34.455Z,4
2019-03-28T02:47:41.655Z,4.1
2019-03-28T02:48:48.853Z,4
2019-03-28T02:49:55.779Z,4.1
2019-03-28T02:51:03.735Z,4.1
2019-03-28T02:52:11.124Z,4.1
2019-03-28T02:53:18.326Z,4.1
2019-03-28T02:54:25.530Z,4.1
2019-03-28T02:55:32.725Z,4.1
2019-03-28T02:56:39.930Z,4.1
2019-03-28T02:57:48.582Z,4.1
2019-03-28T02:58:55.780Z,4.2
2019-03-28T03:00:02.732Z,4.2
2019-03-28T03:01:09.950Z,4.1
2019-03-28T03:02:17.151Z,4.1
2019-03-28T03:03:24.349Z,4.2
2019-03-28T03:04:31.277Z,4.1
2019-03-28T03:05:38.477Z,4.1
2019-03-28T03:06:45.667Z,4.2
2019-03-28T03:07:52.990Z,4.2
2019-03-28T03:09:00.378Z,4.2
2019-03-28T03:10:07.562Z,4.2
2019-03-28T03:11:14.213Z,4.2
2019-03-28T03:12:21.148Z,4.1
2019-03-28T03:13:28.347Z,4.1
2019-03-28T03:14:35.277Z,4.1
2019-03-28T03:15:42.205Z,4.1
2019-03-28T03:16:49.719Z,4.1
2019-03-28T03:17:56.918Z,4.1
2019-03-28T03:19:04.113Z,4.1
2019-03-28T03:20:25.957Z,4.1
2019-03-28T03:21:33.157Z,4.1
2019-03-28T03:22:40.081Z,4.1
2019-03-28T03:23:47.270Z,4.1
2019-03-28T03:24:54.476Z,4.1
2019-03-28T03:26:01.400Z,4.1
2019-03-28T03:27:08.602Z,4.1
2019-03-28T03:28:15.801Z,4.1
2019-03-28T03:29:22.994Z,4.1
2019-03-28T03:30:32.285Z,4.1
2019-03-28T03:31:39.602Z,4.1
2019-03-28T03:32:46.810Z,4.1
2019-03-28T03:33:54.013Z,4.1
2019-03-28T03:35:02.737Z,4.1
2019-03-28T03:36:09.987Z,4.1
2019-03-28T03:37:16.913Z,4.1
2019-03-28T03:38:24.113Z,4.1
2019-03-28T03:39:31.306Z,4.1
2019-03-28T03:40:38.498Z,4.1
2019-03-28T03:41:45.302Z,4.2
2019-03-28T03:42:52.501Z,4.2
2019-03-28T03:43:59.704Z,4.2
2019-03-28T03:45:06.907Z,4.1
2019-03-28T03:46:15.818Z,4.1
2019-03-28T03:47:23.020Z,4.1
2019-03-28T03:48:29.951Z,4.1
2019-03-28T03:49:37.151Z,4.1
2019-03-28T03:50:44.353Z,4.2
2019-03-28T03:51:51.272Z,4.2
2019-03-28T03:52:58.487Z,4.2
2019-03-28T03:54:05.685Z,4.2
2019-03-28T03:55:12.884Z,4.2
2019-03-28T03:56:20.102Z,4.3
2019-03-28T03:57:27.037Z,4.3
2019-03-28T03:58:34.328Z,4.3
2019-03-28T03:59:41.521Z,4.3
2019-03-28T04:00:48.712Z,4.3
2019-03-28T04:01:55.909Z,4.3
2019-03-28T04:03:03.828Z,4.3
2019-03-28T04:04:11.036Z,4.3
2019-03-28T04:05:17.933Z,4.3
2019-03-28T04:06:24.313Z,4.3
2019-03-28T04:07:31.513Z,4.3
2019-03-28T04:08:38.721Z,4.3
2019-03-28T04:09:45.913Z,4.3
2019-03-28T04:10:53.118Z,4.4
2019-03-28T04:12:00.370Z,4.3
2019-03-28T04:13:07.557Z,4.3
2019-03-28T04:14:14.758Z,4.3
2019-03-28T04:15:21.421Z,4.3
2019-03-28T04:16:29.494Z,4.3
2019-03-28T04:17:36.867Z,4.3
2019-03-28T04:18:44.073Z,4.3
2019-03-28T04:19:51.269Z,4.3
2019-03-28T04:20:58.472Z,4.3
2019-03-28T04:22:05.669Z,4.3
2019-03-28T04:23:12.869Z,4.3
2019-03-28T04:24:19.841Z,4.3
2019-03-28T04:25:28.183Z,4.4
2019-03-28T04:26:35.386Z,4.4
2019-03-28T04:27:42.319Z,4.4
2019-03-28T04:28:49.515Z,4.4
2019-03-28T04:29:57.337Z,4.4
2019-03-28T04:31:04.534Z,4.4
2019-03-28T04:32:11.738Z,4.4
2019-03-28T04:33:18.958Z,4.4
2019-03-28T04:34:25.880Z,4.4
2019-03-28T04:35:33.077Z,4.4
2019-03-28T04:36:41.389Z,4.4
2019-03-28T04:37:48.316Z,4.4
2019-03-28T04:38:55.514Z,4.4
2019-03-28T04:40:02.712Z,4.4
2019-03-28T04:41:09.912Z,4.4
2019-03-28T04:42:17.110Z,4.4
2019-03-28T04:43:25.522Z,4.4
2019-03-28T04:44:32.798Z,4.4
2019-03-28T04:45:40.000Z,4.4
2019-03-28T04:46:47.202Z,4.4
2019-03-28T04:47:54.402Z,4.4
2019-03-28T04:49:01.324Z,4.4
2019-03-28T04:50:08.247Z,4.4
2019-03-28T04:51:15.002Z,4.4
2019-03-28T04:52:22.201Z,4.3
2019-03-28T04:53:30.245Z,4.3
2019-03-28T04:54:37.448Z,4.3
2019-03-28T04:55:44.642Z,4.3
2019-03-28T04:56:51.842Z,4.3
2019-03-28T04:57:59.036Z,4.3
2019-03-28T04:59:06.236Z,4.3
2019-03-28T05:00:13.437Z,4.3
2019-03-28T05:01:20.647Z,4.4
2019-03-28T05:02:27.845Z,4.3
2019-03-28T05:03:35.046Z,4.3
2019-03-28T05:04:42.249Z,4.3
2019-03-28T05:05:49.174Z,4.3
2019-03-28T05:06:56.111Z,4.3
2019-03-28T05:08:03.037Z,4.3
2019-03-28T05:09:10.240Z,4.3
2019-03-28T05:10:17.434Z,4.3
2019-03-28T05:11:24.630Z,4.3
2019-03-28T05:12:31.289Z,4.3
2019-03-28T05:13:38.488Z,4.3
2019-03-28T05:14:45.685Z,4.3
2019-03-28T05:15:52.888Z,4.3
2019-03-28T05:17:00.092Z,4.3
2019-03-28T05:18:07.293Z,4.3
2019-03-28T05:19:14.486Z,4.2
2019-03-28T05:20:21.681Z,4.2
2019-03-28T05:21:28.877Z,4.2
2019-03-28T05:22:36.078Z,4.3
2019-03-28T05:23:43.281Z,4.3
2019-03-28T05:24:50.486Z,4.3
2019-03-28T05:25:57.690Z,4.3
2019-03-28T05:27:04.611Z,4.3
2019-03-28T05:28:11.811Z,4.3
2019-03-28T05:29:19.013Z,4.3
2019-03-28T05:30:26.215Z,4.3
2019-03-28T05:31:34.300Z,4.3
2019-03-28T05:32:41.287Z,4.3
2019-03-28T05:33:47.942Z,4.3
2019-03-28T05:34:55.148Z,4.3
2019-03-28T05:36:05.037Z,4.3
2019-03-28T05:37:12.285Z,4.3
2019-03-28T05:38:19.215Z,4.3
2019-03-28T05:39:26.417Z,4.3
2019-03-28T05:40:33.613Z,4.3
2019-03-28T05:41:40.809Z,4.3
2019-03-28T05:42:47.743Z,4.3
2019-03-28T05:43:54.677Z,4.4
2019-03-28T05:45:01.882Z,4.4
2019-03-28T05:46:09.079Z,4.4
2019-03-28T05:47:16.287Z,4.4
2019-03-28T05:48:23.487Z,4.4
2019-03-28T05:49:30.696Z,4.4
2019-03-28T05:50:37.899Z,4.4
2019-03-28T05:51:45.096Z,4.4
2019-03-28T05:52:52.297Z,4.4
2019-03-28T05:53:59.496Z,4.5
2019-03-28T05:55:06.697Z,4.5
2019-03-28T05:56:13.902Z,4.5
2019-03-28T05:57:21.111Z,4.6
2019-03-28T05:58:28.306Z,4.6
2019-03-28T05:59:35.511Z,4.7
2019-03-28T06:00:42.710Z,4.7
2019-03-28T06:01:49.371Z,4.8
2019-03-28T06:02:56.573Z,4.8
2019-03-28T06:04:03.781Z,4.9
2019-03-28T06:05:10.771Z,4.9
2019-03-28T06:06:18.871Z,5
2019-03-28T06:07:26.063Z,5
2019-03-28T06:08:33.259Z,5
2019-03-28T06:09:40.956Z,5.1
2019-03-28T06:10:47.879Z,5.1
2019-03-28T06:11:55.281Z,5.2
2019-03-28T06:13:02.199Z,5.3
2019-03-28T06:14:09.178Z,5.3
2019-03-28T06:15:15.836Z,5.3
2019-03-28T06:16:22.804Z,5.4
2019-03-28T06:17:29.731Z,5.5
2019-03-28T06:18:36.930Z,5.5
2019-03-28T06:19:43.859Z,5.6
2019-03-28T06:20:51.061Z,5.6
2019-03-28T06:21:57.983Z,5.7
2019-03-28T06:23:05.184Z,5.7
2019-03-28T06:24:12.393Z,5.7
2019-03-28T06:25:19.317Z,5.8
2019-03-28T06:26:26.514Z,5.8
2019-03-28T06:27:34.025Z,5.8
2019-03-28T06:28:40.951Z,5.9
2019-03-28T06:29:48.158Z,5.9
2019-03-28T06:30:56.528Z,6
2019-03-28T06:32:03.456Z,6
2019-03-28T06:33:10.404Z,6
2019-03-28T06:34:17.605Z,6.1
2019-03-28T06:35:24.805Z,6.2
2019-03-28T06:36:32.005Z,6.1
2019-03-28T06:37:39.207Z,6.2
2019-03-28T06:38:46.472Z,6.2
2019-03-28T06:39:53.673Z,6.3
2019-03-28T06:41:00.876Z,6.3
2019-03-28T06:42:07.803Z,6.3
2019-03-28T06:43:14.734Z,6.3
2019-03-28T06:44:21.937Z,6.4
2019-03-28T06:45:28.862Z,6.4
2019-03-28T06:46:36.107Z,6.5
2019-03-28T06:47:43.301Z,6.5
2019-03-28T06:48:50.225Z,6.5
2019-03-28T06:49:57.425Z,6.6
2019-03-28T06:51:04.627Z,6.6
2019-03-28T06:52:11.826Z,6.6
2019-03-28T06:53:19.036Z,6.7
2019-03-28T06:54:25.974Z,6.7
2019-03-28T06:55:33.173Z,6.7
2019-03-28T06:56:44.120Z,6.8
2019-03-28T06:57:51.314Z,6.8
2019-03-28T06:58:58.518Z,6.8
2019-03-28T07:00:05.714Z,6.8
2019-03-28T07:01:12.923Z,6.9
2019-03-28T07:02:22.449Z,7
2019-03-28T07:03:29.380Z,7
2019-03-28T07:04:36.585Z,7.1
2019-03-28T07:05:43.512Z,7.1
2019-03-28T07:06:50.715Z,7.2
2019-03-28T07:07:58.838Z,7.3
2019-03-28T07:09:05.766Z,7.3
2019-03-28T07:10:12.701Z,7.3
2019-03-28T07:11:19.365Z,7.4
2019-03-28T07:12:26.573Z,7.4
2019-03-28T07:13:33.500Z,7.4
2019-03-28T07:14:40.707Z,7.5
2019-03-28T07:15:47.637Z,7.5
2019-03-28T07:16:54.850Z,7.5
2019-03-28T07:18:01.508Z,7.5
2019-03-28T07:19:08.713Z,7.6
2019-03-28T07:20:15.906Z,7.6
2019-03-28T07:21:22.838Z,7.6
2019-03-28T07:22:29.767Z,7.6
2019-03-28T07:23:36.972Z,7.6
2019-03-28T07:24:44.171Z,7.7
2019-03-28T07:25:51.376Z,7.7
2019-03-28T07:26:58.038Z,7.7
2019-03-28T07:28:06.934Z,7.8
2019-03-28T07:29:14.121Z,7.8
2019-03-28T07:30:21.321Z,7.8
2019-03-28T07:31:28.524Z,7.9
2019-03-28T07:32:35.735Z,8
2019-03-28T07:33:42.935Z,8
2019-03-28T07:34:50.138Z,8.1
2019-03-28T07:35:57.340Z,8.1
2019-03-28T07:37:04.538Z,8.1
2019-03-28T07:38:11.738Z,8.1
2019-03-28T07:39:19.771Z,8.2
2019-03-28T07:40:26.970Z,8.2
2019-03-28T07:41:33.898Z,8.3
2019-03-28T07:42:40.862Z,8.3
2019-03-28T07:43:48.066Z,8.3
2019-03-28T07:44:54.997Z,8.3
2019-03-28T07:46:02.200Z,8.4
2019-03-28T07:47:08.857Z,8.4
2019-03-28T07:48:16.065Z,8.4
2019-03-28T07:49:23.264Z,8.4
2019-03-28T07:50:33.925Z,8.5
2019-03-28T07:51:41.129Z,8.5
2019-03-28T07:52:48.341Z,8.6
2019-03-28T07:53:55.537Z,8.7
2019-03-28T07:55:02.744Z,8.7
2019-03-28T07:56:09.936Z,8.8
2019-03-28T07:57:16.870Z,8.9
2019-03-28T07:58:23.802Z,9
2019-03-28T07:59:31.022Z,9
2019-03-28T08:00:37.947Z,9
2019-03-28T08:01:44.883Z,9
2019-03-28T08:02:52.095Z,9
2019-03-28T08:03:59.313Z,9.1
2019-03-28T08:05:06.258Z,9
2019-03-28T08:06:13.526Z,9.1
2019-03-28T08:07:20.458Z,9
2019-03-28T08:08:39.256Z,9
2019-03-28T08:09:50.365Z,9.2
2019-03-28T08:10:57.303Z,9.3
2019-03-28T08:12:05.365Z,9.3
2019-03-28T08:13:12.576Z,9.3
2019-03-28T08:14:19.776Z,9.3
2019-03-28T08:15:26.987Z,9.4
2019-03-28T08:16:34.196Z,9.3
2019-03-28T08:17:41.401Z,9.3
2019-03-28T08:18:48.606Z,9.3
2019-03-28T08:19:55.532Z,9.4
2019-03-28T08:21:02.764Z,9.5
2019-03-28T08:22:09.974Z,9.5
2019-03-28T08:23:17.181Z,9.4
2019-03-28T08:24:24.387Z,9.4
2019-03-28T08:25:31.591Z,9.5
2019-03-28T08:26:38.519Z,9.6
2019-03-28T08:27:45.452Z,9.5
2019-03-28T08:28:52.386Z,9.6
2019-03-28T08:29:59.601Z,9.8
2019-03-28T08:31:06.835Z,9.8
2019-03-28T08:32:14.272Z,9.8
2019-03-28T08:33:21.477Z,9.9
2019-03-28T08:34:31.839Z,10
2019-03-28T08:35:39.033Z,10.1
2019-03-28T08:36:46.298Z,10.2
2019-03-28T08:37:53.501Z,10
2019-03-28T08:39:01.249Z,9.8
2019-03-28T08:40:08.457Z,9.7
2019-03-28T08:41:15.671Z,9.7
2019-03-28T08:42:22.874Z,9.8
2019-03-28T08:43:30.085Z,9.8
2019-03-28T08:44:37.286Z,9.7
2019-03-28T08:45:45.348Z,9.8
2019-03-28T08:46:52.578Z,9.8
2019-03-28T08:47:59.777Z,9.8
2019-03-28T08:49:06.706Z,9.9
2019-03-28T08:50:13.642Z,10
2019-03-28T08:51:20.874Z,10
2019-03-28T08:52:28.062Z,10
2019-03-28T08:53:35.270Z,9.9
2019-03-28T08:54:42.474Z,9.9
2019-03-28T08:55:49.682Z,9.9
2019-03-28T08:56:56.882Z,10
2019-03-28T08:58:04.089Z,10.2
2019-03-28T08:59:11.291Z,10.3
2019-03-28T09:00:39.193Z,10.5
2019-03-28T09:01:59.554Z,10.7
2019-03-28T09:03:06.754Z,10.6
2019-03-28T09:04:13.958Z,10.7
2019-03-28T09:05:21.163Z,11
2019-03-28T09:06:28.367Z,11.1
2019-03-28T09:07:35.570Z,11.3
2019-03-28T09:08:42.230Z,11.3
2019-03-28T09:09:49.162Z,11.5
2019-03-28T09:10:56.249Z,11.9
2019-03-28T09:12:03.446Z,12.2
2019-03-28T09:13:10.749Z,12.4
2019-03-28T09:14:17.409Z,12.4
2019-03-28T09:15:24.631Z,12.3
2019-03-28T09:16:31.579Z,12.4
2019-03-28T09:17:38.780Z,12.6
2019-03-28T09:18:45.712Z,12.7
2019-03-28T09:19:52.920Z,12.8
2019-03-28T09:20:59.851Z,12.8
2019-03-28T09:22:07.055Z,12.8
2019-03-28T09:23:14.263Z,12.6
2019-03-28T09:24:21.196Z,12.1
2019-03-28T09:25:28.400Z,11.8
2019-03-28T09:26:35.605Z,11.9
2019-03-28T09:27:42.812Z,11.9
2019-03-28T09:28:49.820Z,12.3
2019-03-28T09:29:57.028Z,12.4
2019-03-28T09:31:03.988Z,12.6
2019-03-28T09:32:25.431Z,12.9
2019-03-28T09:33:32.639Z,12.5
2019-03-28T09:34:39.850Z,12.7
2019-03-28T09:35:47.302Z,12.7
2019-03-28T09:36:54.576Z,13.1
2019-03-28T09:38:01.841Z,13.3
2019-03-28T09:39:09.042Z,13.1
2019-03-28T09:40:15.975Z,13.1
2019-03-28T09:41:23.177Z,13.4
2019-03-28T09:42:30.426Z,13.7
2019-03-28T09:43:37.366Z,13.8
2019-03-28T09:44:44.320Z,13.8
2019-03-28T09:45:51.257Z,12.9
2019-03-28T09:46:58.485Z,12.6
2019-03-28T09:48:05.688Z,12.4
2019-03-28T09:49:12.887Z,12.6
2019-03-28T09:50:20.098Z,12.8
2019-03-28T09:51:27.383Z,13.2
2019-03-28T09:52:34.593Z,13.6
2019-03-28T09:53:41.824Z,13.3
2019-03-28T09:54:49.023Z,13.4
2019-03-28T09:55:56.246Z,13.6
2019-03-28T09:57:03.177Z,13.9
2019-03-28T09:58:10.391Z,13.7
2019-03-28T09:59:17.599Z,13.8
2019-03-28T10:00:24.808Z,13.6
2019-03-28T10:01:31.740Z,13.4
2019-03-28T10:02:38.953Z,13.4
2019-03-28T10:03:46.159Z,13.7
2019-03-28T10:04:53.368Z,13.9
2019-03-28T10:06:00.581Z,14.1
2019-03-28T10:07:07.796Z,14.1
2019-03-28T10:08:15.001Z,14.3
2019-03-28T10:09:21.941Z,14.3
2019-03-28T10:10:29.148Z,14.3
2019-03-28T10:11:36.353Z,14.4
2019-03-28T10:12:44.745Z,14.6
2019-03-28T10:13:51.958Z,14.3
2019-03-28T10:14:59.173Z,14.5
2019-03-28T10:16:06.531Z,14.6
2019-03-28T10:17:13.744Z,14.8
2019-03-28T10:18:21.186Z,15.1
2019-03-28T10:19:28.129Z,15.1
2019-03-28T10:20:35.337Z,14.6
2019-03-28T10:21:42.543Z,14.2
2019-03-28T10:22:49.482Z,14.6
2019-03-28T10:23:56.417Z,15
2019-03-28T10:25:03.348Z,14.8
2019-03-28T10:26:10.564Z,14.7
2019-03-28T10:27:19.742Z,15
2019-03-28T10:28:27.011Z,15.3
2019-03-28T10:29:34.221Z,15.5
2019-03-28T10:30:41.426Z,15
2019-03-28T10:31:48.639Z,15
2019-03-28T10:32:55.846Z,15
2019-03-28T10:34:03.061Z,14.6
2019-03-28T10:35:10.274Z,14.5
2019-03-28T10:36:17.525Z,14.3
2019-03-28T10:37:24.713Z,14.3
2019-03-28T10:38:31.932Z,14.5
2019-03-28T10:39:39.355Z,14.8
2019-03-28T10:40:46.564Z,15.2
2019-03-28T10:41:54.693Z,15.2
2019-03-28T10:43:02.037Z,15.1
2019-03-28T10:44:09.246Z,14.9
2019-03-28T10:45:16.459Z,15.1
2019-03-28T10:46:23.666Z,15.5
2019-03-28T10:47:30.886Z,15.4
2019-03-28T10:48:38.092Z,14.6
2019-03-28T10:49:45.310Z,14
2019-03-28T10:50:52.526Z,14
2019-03-28T10:51:59.729Z,13.7
2019-03-28T10:53:10.372Z,13.8
2019-03-28T10:54:21.242Z,14.2
2019-03-28T10:55:31.931Z,14.5
2019-03-28T10:56:52.530Z,14.4
2019-03-28T10:58:35.078Z,14.2
2019-03-28T10:59:42.487Z,14.6
2019-03-28T11:00:49.707Z,14.9
2019-03-28T11:01:56.631Z,15.1
2019-03-28T11:03:04.769Z,15.3
2019-03-28T11:04:12.090Z,15.3
2019-03-28T11:05:19.026Z,15
2019-03-28T11:06:26.236Z,15
2019-03-28T11:07:33.171Z,15.2
2019-03-28T11:08:40.378Z,15.5
2019-03-28T11:09:48.048Z,15.7
2019-03-28T11:10:55.263Z,15.8
2019-03-28T11:12:03.318Z,15.7
2019-03-28T11:13:10.580Z,15.3
2019-03-28T11:14:17.787Z,14.7
2019-03-28T11:15:24.993Z,14.3
2019-03-28T11:16:32.206Z,14.2
2019-03-28T11:17:39.422Z,14
2019-03-28T11:18:46.629Z,13.9
2019-03-28T11:19:56.581Z,14.2
2019-03-28T11:21:03.797Z,14.5
2019-03-28T11:22:11.900Z,14.8
2019-03-28T11:23:19.135Z,15.2
2019-03-28T11:24:26.073Z,15.5
2019-03-28T11:25:33.283Z,15.4
2019-03-28T11:26:40.214Z,14.9
2019-03-28T11:27:47.440Z,14.8
2019-03-28T11:28:55.935Z,14.8
2019-03-28T11:30:02.868Z,14.4
2019-03-28T11:31:10.074Z,14.3
2019-03-28T11:32:17.317Z,14.2
2019-03-28T11:33:25.550Z,14.3
2019-03-28T11:34:32.766Z,14.4
2019-03-28T11:35:39.986Z,14.4
2019-03-28T11:36:47.223Z,14.6
2019-03-28T11:37:55.235Z,14.3
2019-03-28T11:39:03.460Z,14
2019-03-28T11:40:10.666Z,13.9
2019-03-28T11:41:18.940Z,14.1
2019-03-28T11:42:26.261Z,14.6
2019-03-28T11:43:34.574Z,15.1
2019-03-28T11:44:41.997Z,15.5
2019-03-28T11:45:48.946Z,15.7
2019-03-28T11:46:55.890Z,15.6
2019-03-28T11:48:03.116Z,15.3
2019-03-28T11:49:10.326Z,14.9
2019-03-28T11:50:17.914Z,15.1
2019-03-28T11:51:25.118Z,15.4
2019-03-28T11:52:31.820Z,15.7
2019-03-28T11:53:39.040Z,15.7
2019-03-28T11:54:46.261Z,16.2
2019-03-28T11:55:53.540Z,16.7
2019-03-28T11:57:00.775Z,17.2
2019-03-28T11:58:07.996Z,17.8
2019-03-28T11:59:15.248Z,18
2019-03-28T12:00:22.457Z,18
2019-03-28T12:01:29.706Z,17.6
2019-03-28T12:02:36.916Z,17
2019-03-28T12:03:44.135Z,16.4
2019-03-28T12:04:51.357Z,15.7
2019-03-28T12:05:58.564Z,15.4
2019-03-28T12:07:05.783Z,15.3
2019-03-28T12:08:13.006Z,15.5
2019-03-28T12:09:20.224Z,15.5
2019-03-28T12:10:27.428Z,15.5
2019-03-28T12:11:34.635Z,15.3
2019-03-28T12:12:41.566Z,15.5
2019-03-28T12:13:48.776Z,15.8
2019-03-28T12:14:55.611Z,16
2019-03-28T12:16:03.221Z,16.1
2019-03-28T12:17:09.933Z,16
2019-03-28T12:18:17.061Z,16
2019-03-28T12:19:24.085Z,15.7
2019-03-28T12:20:31.083Z,15.5
2019-03-28T12:21:38.321Z,15.6
2019-03-28T12:22:45.853Z,15.8
2019-03-28T12:23:53.212Z,15.6
2019-03-28T12:25:00.845Z,15.4
2019-03-28T12:26:07.774Z,15.6
2019-03-28T12:27:14.816Z,15.7
2019-03-28T12:28:22.014Z,15.8
2019-03-28T12:29:29.219Z,15.4
2019-03-28T12:30:36.435Z,14.9
2019-03-28T12:31:43.377Z,15.1
2019-03-28T12:32:50.585Z,15.1
2019-03-28T12:33:57.811Z,15
2019-03-28T12:35:05.030Z,14.8
2019-03-28T12:36:12.250Z,14.6
2019-03-28T12:37:19.534Z,14.8
2019-03-28T12:38:26.478Z,15.1
2019-03-28T12:39:34.331Z,15.3
2019-03-28T23:00:06.318Z,9.9
2019-03-28T23:01:13.524Z,9.9
2019-03-28T23:02:20.457Z,9.9
2019-03-28T23:03:27.662Z,9.9
2019-03-28T23:04:34.860Z,9.9
2019-03-28T23:05:42.057Z,9.9
2019-03-28T23:06:49.417Z,10
2019-03-28T23:07:56.339Z,9.9
2019-03-28T23:09:03.269Z,9.9
2019-03-28T23:10:10.195Z,9.9
2019-03-28T23:11:17.399Z,9.9
2019-03-28T23:12:24.605Z,9.9
2019-03-28T23:13:31.539Z,9.9
2019-03-28T23:14:38.743Z,9.9
2019-03-28T23:15:45.954Z,9.9
2019-03-28T23:16:53.153Z,9.9
2019-03-28T23:18:01.716Z,9.9
2019-03-28T23:19:12.497Z,9.8
2019-03-28T23:20:19.756Z,9.9
2019-03-28T23:21:26.957Z,9.8
2019-03-28T23:22:34.455Z,9.8
2019-03-28T23:23:41.386Z,9.8
2019-03-28T23:24:48.585Z,9.8
2019-03-28T23:25:55.783Z,9.8
2019-03-28T23:27:02.993Z,9.8
2019-03-28T23:28:09.924Z,9.8
2019-03-28T23:29:17.130Z,9.8
2019-03-28T23:30:24.331Z,9.9
2019-03-28T23:31:31.537Z,9.8
2019-03-28T23:32:39.443Z,9.8
2019-03-28T23:33:46.376Z,9.8
2019-03-28T23:34:53.579Z,9.8
2019-03-28T23:36:00.792Z,9.8
2019-03-28T23:37:07.998Z,9.7
2019-03-28T23:38:15.273Z,9.7
2019-03-28T23:39:22.475Z,9.7
2019-03-28T23:40:30.477Z,9.7
2019-03-28T23:41:37.408Z,9.7
2019-03-28T23:42:44.650Z,9.6
2019-03-28T23:43:51.851Z,9.6
2019-03-28T23:44:59.054Z,9.5
2019-03-28T23:46:06.259Z,9.5
2019-03-28T23:47:13.189Z,9.4
2019-03-28T23:48:20.131Z,9.4
2019-03-28T23:49:28.479Z,9.4
2019-03-28T23:50:35.415Z,9.4
2019-03-28T23:51:42.636Z,9.3
2019-03-28T23:52:49.838Z,9.4
2019-03-28T23:53:57.043Z,9.3
2019-03-28T23:55:03.968Z,9.3
2019-03-28T23:56:11.331Z,9.2
2019-03-28T23:57:18.266Z,9.2
2019-03-28T23:58:25.468Z,9.2
2019-03-28T23:59:32.669Z,9.1
